createdAt,value
2022-08-29T00:00:17.649Z,23.43
2022-08-29T00:02:47.789Z,23.40
2022-08-29T00:05:18.364Z,23.33
2022-08-29T00:07:46.861Z,23.34
2022-08-29T00:10:15.972Z,23.38
2022-08-29T00:12:45.184Z,23.29
2022-08-29T00:15:15.353Z,23.28
2022-08-29T00:17:44.267Z,23.16
2022-08-29T00:20:17.235Z,23.13
2022-08-29T00:22:45.692Z,23.08
2022-08-29T00:25:15.200Z,22.99
2022-08-29T00:27:44.575Z,22.94
2022-08-29T00:30:19.835Z,22.96
2022-08-29T00:32:47.989Z,22.90
2022-08-29T00:35:22.999Z,22.84
2022-08-29T00:37:52.270Z,22.80
2022-08-29T00:40:24.287Z,22.69
2022-08-29T00:42:52.685Z,22.63
2022-08-29T00:45:20.887Z,22.64
2022-08-29T00:47:53.856Z,22.57
2022-08-29T00:50:28.706Z,22.53
2022-08-29T00:52:58.447Z,22.46
2022-08-29T00:55:30.231Z,22.41
2022-08-29T00:58:01.222Z,22.33
2022-08-29T01:00:29.643Z,22.35
2022-08-29T01:02:58.198Z,22.33
2022-08-29T01:05:28.152Z,22.32
2022-08-29T01:07:56.490Z,22.24
2022-08-29T01:10:42.813Z,22.18
2022-08-29T01:13:12.927Z,22.21
2022-08-29T01:15:44.103Z,22.20
2022-08-29T01:18:16.729Z,22.16
2022-08-29T01:20:58.448Z,22.17
2022-08-29T01:23:34.333Z,22.23
2022-08-29T01:26:06.827Z,22.31
2022-08-29T01:28:39.626Z,22.45
2022-08-29T01:31:10.660Z,22.39
2022-08-29T01:33:43.396Z,22.36
2022-08-29T01:36:15.628Z,22.37
2022-08-29T01:38:44.271Z,22.37
2022-08-29T01:41:14.737Z,22.38
2022-08-29T01:43:48.832Z,22.35
2022-08-29T01:46:19.481Z,22.41
2022-08-29T01:48:48.544Z,22.39
2022-08-29T01:51:18.008Z,22.37
2022-08-29T01:53:46.318Z,22.35
2022-08-29T01:56:19.062Z,22.27
2022-08-29T01:58:48.952Z,22.39
2022-08-29T02:01:20.456Z,22.42
2022-08-29T02:03:50.399Z,22.40
2022-08-29T02:06:18.839Z,22.32
2022-08-29T02:08:47.071Z,22.30
2022-08-29T02:11:17.969Z,22.32
2022-08-29T02:13:48.564Z,22.34
2022-08-29T02:16:18.333Z,22.36
2022-08-29T02:18:47.136Z,22.41
2022-08-29T02:21:18.663Z,22.30
2022-08-29T02:23:50.076Z,22.20
2022-08-29T02:26:21.977Z,22.18
2022-08-29T02:28:51.777Z,22.19
2022-08-29T02:31:21.624Z,22.11
2022-08-29T02:33:49.823Z,22.02
2022-08-29T02:36:17.996Z,22.00
2022-08-29T02:38:48.404Z,21.90
2022-08-29T02:41:16.813Z,21.89
2022-08-29T02:43:46.266Z,21.88
2022-08-29T02:46:17.352Z,21.90
2022-08-29T02:48:47.655Z,21.81
2022-08-29T02:51:31.605Z,21.78
2022-08-29T02:54:00.791Z,21.82
2022-08-29T02:56:29.291Z,22.05
2022-08-29T02:58:59.414Z,22.01
2022-08-29T03:01:28.663Z,21.93
2022-08-29T03:03:56.776Z,21.78
2022-08-29T03:06:25.445Z,21.66
2022-08-29T03:08:54.258Z,21.85
2022-08-29T03:11:24.161Z,21.87
2022-08-29T03:13:52.616Z,21.83
2022-08-29T03:16:27.888Z,21.83
2022-08-29T03:18:56.571Z,21.77
2022-08-29T03:21:27.307Z,21.69
2022-08-29T03:23:57.023Z,21.67
2022-08-29T03:26:25.932Z,21.60
2022-08-29T03:28:54.297Z,21.63
2022-08-29T03:31:22.876Z,21.72
2022-08-29T03:33:52.523Z,21.75
2022-08-29T03:36:20.913Z,21.65
2022-08-29T03:38:49.489Z,21.65
2022-08-29T03:41:22.391Z,21.62
2022-08-29T03:43:50.593Z,21.68
2022-08-29T03:46:18.962Z,21.87
2022-08-29T03:48:47.127Z,21.88
2022-08-29T03:51:16.774Z,21.80
2022-08-29T03:53:45.340Z,21.80
2022-08-29T03:56:18.345Z,21.71
2022-08-29T03:58:52.554Z,21.61
2022-08-29T04:01:22.829Z,21.61
2022-08-29T04:03:51.629Z,21.57
2022-08-29T04:06:22.506Z,21.72
2022-08-29T04:08:51.736Z,21.77
2022-08-29T04:11:22.587Z,21.87
2022-08-29T04:13:51.446Z,21.89
2022-08-29T04:16:23.108Z,21.96
2022-08-29T04:18:51.506Z,21.92
2022-08-29T04:21:21.123Z,22.14
2022-08-29T04:23:53.442Z,22.27
2022-08-29T04:26:37.743Z,22.17
2022-08-29T04:29:06.729Z,21.94
2022-08-29T04:31:36.704Z,21.82
2022-08-29T04:34:06.206Z,21.86
2022-08-29T04:36:37.142Z,21.87
2022-08-29T04:39:06.614Z,21.92
2022-08-29T04:41:35.422Z,21.95
2022-08-29T04:44:03.756Z,22.07
2022-08-29T04:46:32.906Z,22.15
2022-08-29T04:49:04.304Z,22.09
2022-08-29T04:51:34.481Z,22.05
2022-08-29T04:54:05.314Z,22.08
2022-08-29T04:56:34.847Z,21.93
2022-08-29T04:59:03.054Z,21.91
2022-08-29T05:01:31.869Z,21.78
2022-08-29T05:04:00.103Z,21.69
2022-08-29T05:06:28.725Z,21.67
2022-08-29T05:08:59.337Z,21.66
2022-08-29T05:11:30.884Z,21.58
2022-08-29T05:14:00.680Z,21.53
2022-08-29T05:16:30.492Z,21.63
2022-08-29T05:19:00.061Z,21.59
2022-08-29T05:21:34.149Z,21.68
2022-08-29T05:24:06.083Z,21.88
2022-08-29T05:26:39.090Z,22.09
2022-08-29T05:29:09.653Z,22.14
2022-08-29T05:31:38.273Z,22.30
2022-08-29T05:34:29.928Z,22.39
2022-08-29T05:36:55.188Z,22.60
2022-08-29T05:39:23.530Z,22.82
2022-08-29T05:41:56.479Z,22.98
2022-08-29T05:44:24.913Z,23.26
2022-08-29T05:46:53.040Z,23.40
2022-08-29T05:49:21.524Z,23.46
2022-08-29T05:51:53.347Z,23.56
2022-08-29T05:54:21.903Z,23.62
2022-08-29T05:56:51.293Z,23.87
2022-08-29T05:59:21.302Z,23.96
2022-08-29T06:01:49.470Z,24.14
2022-08-29T06:04:17.573Z,24.35
2022-08-29T06:06:45.940Z,24.48
2022-08-29T06:09:15.086Z,24.56
2022-08-29T06:11:47.156Z,24.72
2022-08-29T06:14:15.917Z,24.82
2022-08-29T06:16:45.606Z,25.04
2022-08-29T06:19:13.805Z,25.13
2022-08-29T06:21:42.076Z,25.24
2022-08-29T06:24:10.493Z,25.45
2022-08-29T06:26:38.725Z,25.62
2022-08-29T06:29:09.790Z,25.67
2022-08-29T06:31:38.753Z,25.76
2022-08-29T06:34:10.178Z,26.04
2022-08-29T06:36:38.804Z,26.19
2022-08-29T06:39:09.954Z,26.31
2022-08-29T06:41:40.766Z,26.34
2022-08-29T06:44:10.547Z,26.32
2022-08-29T06:46:41.770Z,26.32
2022-08-29T06:49:14.667Z,26.43
2022-08-29T06:51:46.862Z,26.55
2022-08-29T06:54:15.465Z,26.54
2022-08-29T06:56:44.228Z,26.53
2022-08-29T06:59:13.192Z,26.57
2022-08-29T07:01:42.935Z,26.58
2022-08-29T07:04:14.598Z,26.71
2022-08-29T07:06:44.173Z,26.57
2022-08-29T07:09:13.166Z,26.64
2022-08-29T07:11:43.342Z,26.64
2022-08-29T07:14:13.535Z,26.68
2022-08-29T07:16:45.116Z,26.88
2022-08-29T07:19:14.923Z,26.93
2022-08-29T07:21:44.074Z,27.00
2022-08-29T07:24:12.400Z,27.06
2022-08-29T07:26:44.292Z,26.98
2022-08-29T07:29:15.997Z,27.07
2022-08-29T07:31:44.293Z,27.34
2022-08-29T07:34:14.673Z,27.52
2022-08-29T07:36:43.063Z,27.48
2022-08-29T07:39:13.360Z,27.61
2022-08-29T07:41:43.673Z,27.75
2022-08-29T07:44:15.910Z,27.83
2022-08-29T07:46:47.541Z,27.93
2022-08-29T07:49:17.329Z,27.89
2022-08-29T07:51:45.540Z,27.85
2022-08-29T07:54:16.904Z,27.97
2022-08-29T07:56:46.043Z,28.08
2022-08-29T07:59:14.541Z,28.07
2022-08-29T08:01:42.715Z,28.25
2022-08-29T08:04:11.661Z,28.35
2022-08-29T08:06:43.611Z,28.49
2022-08-29T08:09:14.149Z,28.49
2022-08-29T08:11:43.788Z,28.55
2022-08-29T08:14:12.695Z,28.45
2022-08-29T08:16:44.319Z,28.50
2022-08-29T08:19:14.300Z,28.59
2022-08-29T08:21:49.593Z,28.67
2022-08-29T08:24:19.752Z,28.69
2022-08-29T08:26:49.670Z,28.80
2022-08-29T08:29:18.519Z,28.99
2022-08-29T08:31:50.056Z,29.24
2022-08-29T08:34:19.024Z,29.27
2022-08-29T08:36:48.697Z,29.50
2022-08-29T08:39:17.163Z,29.53
2022-08-29T08:41:58.544Z,29.47
2022-08-29T08:45:05.722Z,29.60
2022-08-29T08:47:40.174Z,29.70
2022-08-29T08:50:17.650Z,29.77
2022-08-29T08:52:55.163Z,29.91
2022-08-29T08:55:30.747Z,30.02
2022-08-29T08:58:08.004Z,29.84
2022-08-29T09:00:43.655Z,29.88
2022-08-29T09:03:26.566Z,30.10
2022-08-29T09:06:10.841Z,30.09
2022-08-29T09:08:52.363Z,30.10
2022-08-29T09:11:28.225Z,30.00
2022-08-29T09:14:10.917Z,30.06
2022-08-29T09:16:45.091Z,30.07
2022-08-29T09:19:17.269Z,30.17
2022-08-29T09:21:49.815Z,30.12
2022-08-29T09:24:27.111Z,30.01
2022-08-29T09:26:56.410Z,29.85
2022-08-29T09:29:28.622Z,30.02
2022-08-29T09:32:10.368Z,30.28
2022-08-29T09:35:06.911Z,30.27
2022-08-29T09:37:36.288Z,30.07
2022-08-29T09:40:10.828Z,30.19
2022-08-29T09:42:42.859Z,30.62
2022-08-29T09:45:30.711Z,30.73
2022-08-29T09:48:12.291Z,30.84
2022-08-29T09:50:40.462Z,30.92
2022-08-29T09:53:11.673Z,31.07
2022-08-29T09:55:54.944Z,31.26
2022-08-29T09:58:34.262Z,31.36
2022-08-29T10:01:09.862Z,31.47
2022-08-29T10:03:44.462Z,31.56
2022-08-29T10:06:16.569Z,31.68
2022-08-29T10:08:57.758Z,31.66
2022-08-29T10:11:33.099Z,31.29
2022-08-29T10:14:05.572Z,31.04
2022-08-29T10:16:50.492Z,31.16
2022-08-29T10:19:22.550Z,31.47
2022-08-29T10:22:00.716Z,31.61
2022-08-29T10:24:55.222Z,31.90
2022-08-29T10:27:33.826Z,32.15
2022-08-29T10:30:10.225Z,32.32
2022-08-29T10:33:01.255Z,32.42
2022-08-29T10:35:35.147Z,32.53
2022-08-29T10:38:13.669Z,32.58
2022-08-29T10:40:47.548Z,32.54
2022-08-29T10:43:43.383Z,32.52
2022-08-29T10:46:24.842Z,32.38
2022-08-29T10:49:03.504Z,32.58
2022-08-29T10:51:38.139Z,32.68
2022-08-29T10:54:18.392Z,32.98
2022-08-29T10:56:49.641Z,33.07
2022-08-29T10:59:30.302Z,33.31
2022-08-29T11:02:03.353Z,33.33
2022-08-29T11:04:38.350Z,33.31
2022-08-29T11:07:12.973Z,33.28
2022-08-29T11:09:45.217Z,33.40
2022-08-29T11:12:18.979Z,33.53
2022-08-29T11:14:54.428Z,33.59
2022-08-29T11:17:26.135Z,33.64
2022-08-29T11:20:09.685Z,33.61
2022-08-29T11:22:43.180Z,33.78
2022-08-29T11:25:14.535Z,33.64
2022-08-29T11:27:54.747Z,33.64
2022-08-29T11:30:30.687Z,33.81
2022-08-29T11:33:08.511Z,33.87
2022-08-29T11:35:47.185Z,33.74
2022-08-29T11:38:59.289Z,33.50
2022-08-29T11:41:30.992Z,33.60
2022-08-29T11:44:11.501Z,33.28
2022-08-29T11:46:49.011Z,33.32
2022-08-29T11:49:37.344Z,33.32
2022-08-29T11:52:27.349Z,33.53
2022-08-29T11:55:22.690Z,33.75
2022-08-29T11:58:01.730Z,33.85
2022-08-29T12:00:48.596Z,34.11
2022-08-29T12:03:53.819Z,34.11
2022-08-29T12:06:51.706Z,33.96
2022-08-29T12:09:47.748Z,34.01
2022-08-29T12:12:38.307Z,33.95
2022-08-29T12:15:48.959Z,33.90
2022-08-29T12:18:36.931Z,33.56
2022-08-29T12:21:46.126Z,33.68
2022-08-29T12:24:55.168Z,33.80
2022-08-29T12:27:59.718Z,33.86
2022-08-29T12:30:28.515Z,33.67
2022-08-29T12:33:09.132Z,33.57
2022-08-29T12:36:08.259Z,33.53
2022-08-29T12:38:44.790Z,33.63
2022-08-29T12:41:34.025Z,33.65
2022-08-29T12:44:05.961Z,33.62
2022-08-29T12:46:36.809Z,33.58
2022-08-29T12:49:16.059Z,33.61
2022-08-29T12:51:44.811Z,33.78
2022-08-29T12:54:13.954Z,33.89
2022-08-29T12:56:49.996Z,33.77
2022-08-29T12:59:20.364Z,33.67
2022-08-29T13:01:52.272Z,33.80
2022-08-29T13:04:32.001Z,33.67
2022-08-29T13:07:03.196Z,33.60
2022-08-29T13:09:34.161Z,33.62
2022-08-29T13:12:13.529Z,33.75
2022-08-29T13:15:04.071Z,33.90
2022-08-29T13:17:35.525Z,33.95
2022-08-29T13:20:42.831Z,33.76
2022-08-29T13:23:17.158Z,33.65
2022-08-29T13:25:49.760Z,33.87
2022-08-29T13:28:25.324Z,34.00
2022-08-29T13:31:30.499Z,34.14
2022-08-29T13:34:12.948Z,34.22
2022-08-29T13:36:46.226Z,34.34
2022-08-29T13:39:29.183Z,34.42
2022-08-29T13:42:21.444Z,34.57
2022-08-29T13:45:13.110Z,34.56
2022-08-29T13:47:49.697Z,34.65
2022-08-29T13:50:17.865Z,34.56
2022-08-29T13:52:46.027Z,34.72
2022-08-29T13:55:14.298Z,34.59
2022-08-29T13:57:42.876Z,34.48
2022-08-29T14:00:13.940Z,34.29
2022-08-29T14:02:45.123Z,34.38
2022-08-29T14:05:15.006Z,34.54
2022-08-29T14:07:45.670Z,34.47
2022-08-29T14:10:17.608Z,34.50
2022-08-29T14:12:47.572Z,34.62
2022-08-29T14:15:19.032Z,34.79
2022-08-29T14:17:49.064Z,34.73
2022-08-29T14:20:20.010Z,34.63
2022-08-29T14:22:48.889Z,34.57
2022-08-29T14:25:20.436Z,34.49
2022-08-29T14:27:49.633Z,34.54
2022-08-29T14:30:22.059Z,34.48
2022-08-29T14:32:50.476Z,34.55
2022-08-29T14:35:26.766Z,34.49
2022-08-29T14:38:01.474Z,34.44
2022-08-29T14:40:30.731Z,34.31
2022-08-29T14:42:59.414Z,34.05
2022-08-29T14:45:30.261Z,33.87
2022-08-29T14:47:59.042Z,33.74
2022-08-29T14:50:29.758Z,33.66
2022-08-29T14:52:57.892Z,33.57
2022-08-29T14:55:26.415Z,33.65
2022-08-29T14:57:54.789Z,33.71
2022-08-29T15:00:25.865Z,33.68
2022-08-29T15:02:56.985Z,33.69
2022-08-29T15:05:26.083Z,33.61
2022-08-29T15:07:54.619Z,33.56
2022-08-29T15:10:25.177Z,33.32
2022-08-29T15:12:54.876Z,33.03
2022-08-29T15:15:29.535Z,32.85
2022-08-29T15:18:00.740Z,32.68
2022-08-29T15:20:38.735Z,32.68
2022-08-29T15:23:08.203Z,32.67
2022-08-29T15:25:36.516Z,32.63
2022-08-29T15:28:06.904Z,32.46
2022-08-29T15:30:35.563Z,32.26
2022-08-29T15:33:05.415Z,32.27
2022-08-29T15:35:34.347Z,32.24
2022-08-29T15:38:02.675Z,32.08
2022-08-29T15:40:31.362Z,31.94
2022-08-29T15:42:59.703Z,31.84
2022-08-29T15:45:27.906Z,31.62
2022-08-29T15:47:59.009Z,31.45
2022-08-29T15:50:47.109Z,31.38
2022-08-29T15:53:15.676Z,31.25
2022-08-29T15:55:44.588Z,31.01
2022-08-29T15:58:12.886Z,30.85
2022-08-29T16:00:41.214Z,30.73
2022-08-29T16:03:09.755Z,30.65
2022-08-29T16:05:41.106Z,30.59
2022-08-29T16:08:10.773Z,30.45
2022-08-29T16:10:45.387Z,30.38
2022-08-29T16:13:14.512Z,30.23
2022-08-29T16:15:42.953Z,30.25
2022-08-29T16:18:11.529Z,30.16
2022-08-29T16:20:41.692Z,30.00
2022-08-29T16:23:10.118Z,29.94
2022-08-29T16:25:39.264Z,29.80
2022-08-29T16:28:07.732Z,29.62
2022-08-29T16:30:44.232Z,29.48
2022-08-29T16:33:14.159Z,29.34
2022-08-29T16:35:43.876Z,29.21
2022-08-29T16:38:12.530Z,29.06
2022-08-29T16:40:41.024Z,28.90
2022-08-29T16:43:09.752Z,28.87
2022-08-29T16:45:38.275Z,28.84
2022-08-29T16:48:17.667Z,28.78
2022-08-29T16:50:48.026Z,28.72
2022-08-29T16:53:16.314Z,28.62
2022-08-29T16:55:44.477Z,28.60
2022-08-29T16:58:30.155Z,28.52
2022-08-29T17:00:58.890Z,28.49
2022-08-29T17:03:27.293Z,28.42
2022-08-29T17:05:56.933Z,28.35
2022-08-29T17:08:23.993Z,28.32
2022-08-29T17:10:50.977Z,28.28
2022-08-29T17:13:18.150Z,28.18
2022-08-29T17:15:45.129Z,28.15
2022-08-29T17:18:13.345Z,28.11
2022-08-29T17:20:44.014Z,28.06
2022-08-29T17:23:16.402Z,28.05
2022-08-29T17:25:44.846Z,28.02
2022-08-29T17:28:18.109Z,28.05
2022-08-29T17:30:48.082Z,28.00
2022-08-29T17:33:17.005Z,27.98
2022-08-29T17:35:45.667Z,27.97
2022-08-29T17:38:16.118Z,27.94
2022-08-29T17:40:44.765Z,27.95
2022-08-29T17:43:15.031Z,27.88
2022-08-29T17:45:43.334Z,27.78
2022-08-29T17:48:11.840Z,27.70
2022-08-29T17:50:41.533Z,27.64
2022-08-29T17:53:09.673Z,27.58
2022-08-29T17:55:43.008Z,27.53
2022-08-29T17:58:11.629Z,27.51
2022-08-29T18:00:40.021Z,27.50
2022-08-29T18:03:08.262Z,27.47
2022-08-29T18:05:36.634Z,27.42
2022-08-29T18:08:05.318Z,27.41
2022-08-29T18:10:33.813Z,27.40
2022-08-29T18:13:04.012Z,27.29
2022-08-29T18:15:35.550Z,27.34
2022-08-29T18:18:04.151Z,27.27
2022-08-29T18:20:33.802Z,27.22
2022-08-29T18:23:02.006Z,27.16
2022-08-29T18:25:30.362Z,27.13
2022-08-29T18:28:00.224Z,27.00
2022-08-29T18:30:29.980Z,26.96
2022-08-29T18:32:58.535Z,26.92
2022-08-29T18:35:27.498Z,26.85
2022-08-29T18:37:55.879Z,26.76
2022-08-29T18:40:25.550Z,26.73
2022-08-29T18:42:54.817Z,26.68
2022-08-29T18:45:23.148Z,26.64
2022-08-29T18:47:52.849Z,26.57
2022-08-29T18:50:36.707Z,26.51
2022-08-29T18:53:11.966Z,26.44
2022-08-29T18:55:45.000Z,26.41
2022-08-29T18:58:17.995Z,26.34
2022-08-29T19:00:46.326Z,26.30
2022-08-29T19:03:16.093Z,26.27
2022-08-29T19:05:49.572Z,26.25
2022-08-29T19:08:18.241Z,26.25
2022-08-29T19:10:48.567Z,26.20
2022-08-29T19:13:18.759Z,26.15
2022-08-29T19:15:48.699Z,26.16
2022-08-29T19:18:18.951Z,26.13
2022-08-29T19:21:06.591Z,26.14
2022-08-29T19:23:37.575Z,26.09
2022-08-29T19:26:08.226Z,26.06
2022-08-29T19:28:36.718Z,26.04
2022-08-29T19:31:06.773Z,26.00
2022-08-29T19:33:38.377Z,26.00
2022-08-29T19:36:09.792Z,25.95
2022-08-29T19:38:38.008Z,25.88
2022-08-29T19:41:06.360Z,25.92
2022-08-29T19:43:36.010Z,25.87
2022-08-29T19:46:10.485Z,25.80
2022-08-29T19:48:44.265Z,25.76
2022-08-29T19:51:18.522Z,25.70
2022-08-29T19:53:47.668Z,25.65
2022-08-29T19:56:15.895Z,25.60
2022-08-29T19:58:44.246Z,25.58
2022-08-29T20:01:12.552Z,25.54
2022-08-29T20:03:42.466Z,25.46
2022-08-29T20:06:12.358Z,25.44
2022-08-29T20:08:42.759Z,25.42
2022-08-29T20:11:12.907Z,25.39
2022-08-29T20:13:41.137Z,25.31
2022-08-29T20:16:12.133Z,25.24
2022-08-29T20:18:41.217Z,25.17
2022-08-29T20:21:09.891Z,25.10
2022-08-29T20:26:28.226Z,25.03
2022-08-29T20:28:58.438Z,25.11
2022-08-29T20:31:26.705Z,25.18
2022-08-29T20:33:55.473Z,25.19
2022-08-29T20:36:42.289Z,25.29
2022-08-29T20:39:15.297Z,25.31
2022-08-29T20:41:49.359Z,25.31
2022-08-29T20:44:20.409Z,25.27
2022-08-29T20:46:49.448Z,25.19
2022-08-29T20:49:22.773Z,25.09
2022-08-29T20:51:52.148Z,25.10
2022-08-29T20:54:25.078Z,24.99
2022-08-29T20:56:55.104Z,24.98
2022-08-29T20:59:26.454Z,24.93
2022-08-29T21:01:55.555Z,25.01
2022-08-29T21:04:41.225Z,24.85
2022-08-29T21:07:12.178Z,24.70
2022-08-29T21:09:44.413Z,24.65
2022-08-29T21:12:15.168Z,24.62
2022-08-29T21:14:43.495Z,24.51
2022-08-29T21:17:13.559Z,24.65
2022-08-29T21:19:42.223Z,24.70
2022-08-29T21:22:12.890Z,24.64
2022-08-29T21:24:43.216Z,24.65
2022-08-29T21:27:11.577Z,24.62
2022-08-29T21:29:40.537Z,24.67
2022-08-29T21:32:08.739Z,24.72
2022-08-29T21:34:36.878Z,24.60
2022-08-29T21:37:05.659Z,24.66
2022-08-29T21:39:33.966Z,24.60
2022-08-29T21:42:03.415Z,24.62
2022-08-29T21:44:32.431Z,24.59
2022-08-29T21:47:01.121Z,24.57
2022-08-29T21:49:30.533Z,24.57
2022-08-29T21:51:58.657Z,24.53
2022-08-29T21:54:27.215Z,24.56
2022-08-29T21:56:55.334Z,24.56
2022-08-29T21:59:25.505Z,24.52
2022-08-29T22:01:54.944Z,24.49
2022-08-29T22:04:28.595Z,24.51
2022-08-29T22:06:58.318Z,24.47
2022-08-29T22:09:27.897Z,24.45
2022-08-29T22:11:56.264Z,24.42
2022-08-29T22:14:47.017Z,24.50
2022-08-29T22:17:15.744Z,24.48
2022-08-29T22:19:43.871Z,24.41
2022-08-29T22:22:12.536Z,24.34
2022-08-29T22:24:40.777Z,24.44
2022-08-29T22:27:08.979Z,24.44
2022-08-29T22:29:38.694Z,24.42
2022-08-29T22:32:07.080Z,24.27
2022-08-29T22:34:35.598Z,24.23
2022-08-29T22:37:03.961Z,24.24
2022-08-29T22:39:32.413Z,24.23
2022-08-29T22:42:00.483Z,24.25
2022-08-29T22:47:20.018Z,24.24
2022-08-29T22:49:48.137Z,24.27
2022-08-29T22:52:16.218Z,24.25
2022-08-29T22:54:44.376Z,24.25
2022-08-29T22:57:19.223Z,24.26
2022-08-29T22:59:49.822Z,24.23
2022-08-29T23:02:21.119Z,24.26
2022-08-29T23:04:50.618Z,24.23
2022-08-29T23:07:19.360Z,24.28
2022-08-29T23:09:47.850Z,24.26
2022-08-29T23:12:16.494Z,24.26
2022-08-29T23:14:47.426Z,24.26
2022-08-29T23:17:17.281Z,24.24
2022-08-29T23:19:46.898Z,24.23
2022-08-29T23:22:18.333Z,24.25
2022-08-29T23:24:53.769Z,24.24
2022-08-29T23:27:27.647Z,24.23
2022-08-29T23:29:56.081Z,24.22
2022-08-29T23:32:24.292Z,24.17
2022-08-29T23:34:53.803Z,24.23
2022-08-29T23:37:21.974Z,24.31
2022-08-29T23:39:50.921Z,24.31
2022-08-29T23:42:19.085Z,24.30
2022-08-29T23:44:48.523Z,24.27
2022-08-29T23:47:17.180Z,24.24
2022-08-29T23:49:45.694Z,24.25
2022-08-29T23:52:15.411Z,24.26
2022-08-29T23:54:43.538Z,24.23
2022-08-29T23:57:12.093Z,24.18
2022-08-29T23:59:57.656Z,24.14
